createdAt,value
2018-05-25T00:01:06.461Z,99.90
2018-05-25T00:03:33.732Z,99.90
2018-05-25T00:06:00.190Z,99.90
2018-05-25T00:08:27.194Z,99.90
2018-05-25T00:10:53.378Z,99.90
2018-05-25T00:13:20.653Z,99.90
2018-05-25T00:18:14.721Z,99.90
2018-05-25T00:20:40.891Z,99.90
2018-05-25T00:23:07.595Z,99.90
2018-05-25T00:25:33.768Z,99.90
2018-05-25T00:27:59.938Z,99.90
2018-05-25T00:32:54.062Z,99.90
2018-05-25T00:35:21.338Z,99.90
2018-05-25T00:37:47.610Z,99.90
2018-05-25T00:40:14.752Z,99.90
2018-05-25T00:42:40.977Z,99.90
2018-05-25T00:45:08.638Z,99.90
2018-05-25T00:47:34.827Z,99.90
2018-05-25T00:50:01.012Z,99.90
2018-05-25T00:52:27.214Z,99.90
2018-05-25T00:55:05.920Z,99.90
2018-05-25T00:57:32.209Z,99.90
2018-05-25T00:59:58.379Z,99.90
2018-05-25T01:02:25.654Z,99.90
2018-05-25T01:04:53.036Z,99.90
2018-05-25T01:07:20.015Z,99.90
2018-05-25T01:09:46.181Z,99.90
2018-05-25T01:12:12.359Z,99.90
2018-05-25T01:14:39.632Z,99.90
2018-05-25T01:19:34.635Z,99.90
2018-05-25T01:22:00.810Z,99.90
2018-05-25T01:24:27.345Z,99.90
2018-05-25T01:26:53.570Z,99.90
2018-05-25T01:29:19.750Z,99.90
2018-05-25T01:34:15.158Z,99.90
2018-05-25T01:36:41.426Z,99.90
2018-05-25T01:39:08.702Z,99.90
2018-05-25T01:41:36.748Z,99.90
2018-05-25T01:44:02.938Z,99.90
2018-05-25T01:46:29.103Z,99.90
2018-05-25T01:48:55.282Z,99.90
2018-05-25T01:51:21.454Z,99.90
2018-05-25T01:56:15.577Z,99.90
2018-05-25T01:58:42.091Z,99.90
2018-05-25T02:01:08.258Z,99.90
2018-05-25T02:03:35.540Z,99.90
2018-05-25T02:06:01.738Z,99.90
2018-05-25T02:08:28.183Z,99.90
2018-05-25T02:10:54.378Z,99.90
2018-05-25T02:13:20.555Z,99.90
2018-05-25T02:15:46.714Z,99.90
2018-05-25T02:18:12.897Z,99.90
2018-05-25T02:20:39.380Z,99.90
2018-05-25T02:23:05.873Z,99.90
2018-05-25T02:28:00.569Z,99.90
2018-05-25T02:30:27.029Z,99.90
2018-05-25T02:32:53.552Z,99.90
2018-05-25T02:35:19.711Z,99.90
2018-05-25T02:37:45.870Z,99.90
2018-05-25T02:40:13.166Z,99.90
2018-05-25T02:42:39.342Z,99.90
2018-05-25T02:45:05.505Z,99.90
2018-05-25T02:47:31.690Z,99.90
2018-05-25T02:49:57.865Z,99.90
2018-05-25T02:52:24.014Z,99.90
2018-05-25T02:54:50.182Z,99.90
2018-05-25T02:57:17.516Z,99.90
2018-05-25T02:59:43.624Z,99.90
2018-05-25T03:02:09.818Z,99.90
2018-05-25T03:04:35.979Z,99.90
2018-05-25T03:07:02.175Z,99.90
2018-05-25T03:09:28.363Z,99.90
2018-05-25T03:11:54.515Z,99.90
2018-05-25T03:14:20.679Z,99.90
2018-05-25T03:16:46.859Z,99.90
2018-05-25T03:19:13.005Z,99.90
2018-05-25T03:21:40.295Z,99.90
2018-05-25T03:24:06.494Z,99.90
2018-05-25T03:26:32.654Z,99.90
2018-05-25T03:28:59.962Z,99.90
2018-05-25T03:31:26.165Z,99.90
2018-05-25T03:33:53.458Z,99.90
2018-05-25T03:36:19.628Z,99.90
2018-05-25T03:38:45.806Z,99.90
2018-05-25T03:41:13.101Z,99.90
2018-05-25T03:43:39.263Z,99.90
2018-05-25T03:46:05.448Z,99.90
2018-05-25T03:48:32.734Z,99.90
2018-05-25T03:50:58.904Z,99.90
2018-05-25T03:53:25.086Z,99.90
2018-05-25T03:55:51.251Z,99.90
2018-05-25T04:03:51.444Z,99.90
2018-05-25T04:06:18.760Z,99.90
2018-05-25T04:08:44.918Z,99.90
2018-05-25T04:11:11.094Z,99.90
2018-05-25T04:13:38.478Z,99.90
2018-05-25T04:16:04.696Z,99.90
2018-05-25T04:18:31.966Z,99.90
2018-05-25T04:20:59.250Z,99.90
2018-05-25T04:23:25.483Z,99.90
2018-05-25T04:25:52.763Z,99.90
2018-05-25T04:28:18.982Z,99.90
2018-05-25T04:30:46.270Z,99.90
2018-05-25T04:33:12.490Z,99.90
2018-05-25T04:35:38.681Z,99.90
2018-05-25T04:38:05.227Z,99.90
2018-05-25T04:40:31.418Z,99.90
2018-05-25T04:43:00.081Z,99.90
2018-05-25T04:45:26.314Z,99.90
2018-05-25T04:47:52.493Z,99.90
2018-05-25T04:50:18.686Z,99.90
2018-05-25T04:52:44.887Z,99.90
2018-05-25T04:55:12.178Z,99.90
2018-05-25T04:57:38.382Z,99.90
2018-05-25T05:00:04.586Z,99.90
2018-05-25T05:02:30.750Z,99.90
2018-05-25T05:04:57.030Z,99.90
2018-05-25T05:07:23.198Z,99.90
2018-05-25T05:09:49.350Z,99.90
2018-05-25T05:12:15.527Z,99.90
2018-05-25T05:14:42.817Z,99.90
2018-05-25T05:17:10.076Z,99.90
2018-05-25T05:19:37.790Z,99.90
2018-05-25T05:22:03.950Z,99.90
2018-05-25T05:24:30.126Z,99.90
2018-05-25T05:29:24.261Z,99.90
2018-05-25T05:31:50.433Z,99.90
2018-05-25T05:34:16.630Z,99.90
2018-05-25T05:36:43.908Z,99.90
2018-05-25T05:39:10.074Z,99.90
2018-05-25T05:41:36.255Z,99.90
2018-05-25T05:44:02.431Z,99.90
2018-05-25T05:46:29.196Z,99.90
2018-05-25T05:48:55.417Z,99.90
2018-05-25T05:51:21.634Z,99.90
2018-05-25T05:53:47.925Z,99.90
2018-05-25T05:56:14.295Z,99.90
2018-05-25T05:58:40.467Z,99.90
2018-05-25T06:01:07.757Z,99.90
2018-05-25T06:03:33.974Z,99.90
2018-05-25T06:06:00.142Z,99.90
2018-05-25T06:08:26.360Z,99.90
2018-05-25T06:13:20.493Z,99.90
2018-05-25T06:15:47.780Z,99.90
2018-05-25T06:18:13.957Z,99.90
2018-05-25T06:20:40.149Z,99.90
2018-05-25T06:23:06.341Z,99.90
2018-05-25T06:25:32.494Z,99.90
2018-05-25T06:27:59.257Z,99.90
2018-05-25T06:30:25.434Z,99.90
2018-05-25T06:32:51.731Z,99.90
2018-05-25T06:35:19.835Z,99.90
2018-05-25T06:37:46.090Z,99.90
2018-05-25T06:40:12.935Z,99.90
2018-05-25T06:42:39.316Z,99.90
2018-05-25T06:45:05.647Z,99.90
2018-05-25T06:47:31.903Z,99.90
2018-05-25T06:49:59.270Z,99.90
2018-05-25T06:52:25.460Z,99.90
2018-05-25T06:54:52.123Z,99.90
2018-05-25T06:57:18.359Z,99.90
2018-05-25T06:59:45.800Z,99.90
2018-05-25T07:02:12.010Z,99.90
2018-05-25T07:04:38.576Z,99.90
2018-05-25T07:07:04.747Z,99.90
2018-05-25T07:09:30.944Z,99.90
2018-05-25T07:11:57.557Z,99.90
2018-05-25T07:14:23.779Z,99.90
2018-05-25T07:16:49.972Z,99.90
2018-05-25T07:19:16.152Z,99.90
2018-05-25T07:21:42.339Z,99.90
2018-05-25T07:24:08.575Z,99.90
2018-05-25T07:29:02.726Z,99.90
2018-05-25T07:31:28.998Z,99.90
2018-05-25T07:33:55.402Z,99.90
2018-05-25T07:36:21.798Z,99.90
2018-05-25T07:38:48.007Z,99.90
2018-05-25T07:41:14.178Z,99.90
2018-05-25T07:43:40.346Z,99.90
2018-05-25T07:46:07.631Z,99.90
2018-05-25T07:48:33.787Z,99.90
2018-05-25T07:50:59.930Z,99.90
2018-05-25T07:53:26.239Z,99.90
2018-05-25T07:55:53.498Z,99.90
2018-05-25T07:58:20.824Z,99.90
2018-05-25T08:00:47.090Z,99.90
2018-05-25T08:03:13.266Z,99.90
2018-05-25T08:05:39.426Z,99.90
2018-05-25T08:08:05.632Z,99.90
2018-05-25T08:10:32.893Z,99.90
2018-05-25T08:13:00.170Z,99.90
2018-05-25T08:15:27.842Z,99.90
2018-05-25T08:17:55.130Z,99.90
2018-05-25T08:20:21.298Z,99.90
2018-05-25T08:22:47.478Z,99.90
2018-05-25T08:25:14.664Z,99.90
2018-05-25T08:27:40.904Z,99.90
2018-05-25T08:30:07.103Z,99.90
2018-05-25T08:32:33.304Z,99.90
2018-05-25T08:34:59.575Z,99.90
2018-05-25T08:37:25.767Z,99.90
2018-05-25T08:39:52.039Z,99.90
2018-05-25T08:42:18.234Z,99.90
2018-05-25T08:44:45.536Z,99.90
2018-05-25T08:47:11.836Z,99.90
2018-05-25T08:49:38.277Z,99.90
2018-05-25T08:52:05.722Z,99.90
2018-05-25T08:54:31.927Z,99.90
2018-05-25T08:56:58.273Z,99.90
2018-05-25T08:59:24.437Z,99.90
2018-05-25T09:01:50.719Z,99.90
2018-05-25T09:04:16.960Z,99.90
2018-05-25T09:06:44.323Z,99.90
2018-05-25T09:09:10.483Z,99.90
2018-05-25T09:11:36.751Z,99.90
2018-05-25T09:14:02.964Z,99.90
2018-05-25T09:16:30.258Z,99.90
2018-05-25T09:18:56.448Z,99.90
2018-05-25T09:21:22.642Z,99.90
2018-05-25T09:23:48.796Z,99.90
2018-05-25T09:26:14.955Z,99.90
2018-05-25T09:28:41.174Z,99.90
2018-05-25T09:31:07.344Z,99.90
2018-05-25T09:33:33.506Z,99.90
2018-05-25T09:35:59.670Z,99.90
2018-05-25T09:38:25.834Z,99.90
2018-05-25T09:40:52.068Z,99.90
2018-05-25T09:43:18.258Z,99.90
2018-05-25T09:45:44.439Z,99.90
2018-05-25T09:48:10.618Z,99.90
2018-05-25T09:50:36.822Z,99.90
2018-05-25T09:53:03.022Z,99.90
2018-05-25T09:55:29.202Z,99.90
2018-05-25T09:57:55.390Z,99.90
2018-05-25T10:00:21.654Z,99.90
2018-05-25T10:02:48.959Z,99.80
2018-05-25T10:05:15.185Z,99.90
2018-05-25T10:07:42.565Z,99.50
2018-05-25T10:10:08.802Z,99.90
2018-05-25T10:12:35.002Z,99.40
2018-05-25T10:15:01.193Z,99.10
2018-05-25T10:17:27.432Z,99.10
2018-05-25T10:19:53.604Z,99.30
2018-05-25T10:22:19.773Z,99.30
2018-05-25T10:24:45.989Z,99.20
2018-05-25T10:27:12.181Z,99.30
2018-05-25T10:29:39.522Z,98.70
2018-05-25T10:32:05.710Z,99.20
2018-05-25T10:34:31.883Z,98.60
2018-05-25T10:36:58.107Z,98.40
2018-05-25T10:39:24.296Z,97.50
2018-05-25T10:41:50.564Z,97.90
2018-05-25T10:44:16.755Z,97.80
2018-05-25T10:46:44.088Z,96.60
2018-05-25T10:49:10.255Z,96.80
2018-05-25T10:51:36.501Z,96.80
2018-05-25T10:54:02.729Z,97.00
2018-05-25T10:56:28.900Z,96.60
2018-05-25T10:58:55.121Z,96.50
2018-05-25T11:01:21.338Z,96.30
2018-05-25T11:03:47.529Z,96.30
2018-05-25T11:06:14.914Z,95.90
2018-05-25T11:08:42.387Z,95.60
2018-05-25T11:11:09.290Z,96.00
2018-05-25T11:13:35.542Z,96.10
2018-05-25T11:16:01.793Z,96.10
2018-05-25T11:18:28.011Z,96.10
2018-05-25T11:20:54.259Z,95.80
2018-05-25T11:23:20.409Z,95.90
2018-05-25T11:25:47.109Z,96.00
2018-05-25T11:28:13.374Z,96.00
2018-05-25T11:30:39.638Z,95.80
2018-05-25T11:33:05.830Z,95.50
2018-05-25T11:38:00.052Z,95.30
2018-05-25T11:40:26.235Z,95.20
2018-05-25T11:42:52.442Z,95.30
2018-05-25T11:45:18.647Z,94.80
2018-05-25T11:47:44.823Z,94.50
2018-05-25T11:50:11.014Z,94.50
2018-05-25T11:52:37.216Z,94.30
2018-05-25T11:55:03.429Z,93.70
2018-05-25T11:57:30.733Z,89.00
2018-05-25T11:59:56.800Z,89.50
2018-05-25T12:02:22.948Z,86.80
2018-05-25T12:04:49.163Z,83.30
2018-05-25T12:07:15.402Z,82.60
2018-05-25T12:09:41.622Z,82.40
2018-05-25T12:12:07.850Z,81.20
2018-05-25T12:14:34.019Z,80.10
2018-05-25T12:17:00.194Z,82.50
2018-05-25T12:19:26.496Z,82.90
2018-05-25T12:21:52.679Z,82.90
2018-05-25T12:24:18.880Z,84.80
2018-05-25T12:26:45.042Z,86.00
2018-05-25T12:29:11.251Z,87.00
2018-05-25T12:31:37.463Z,87.10
2018-05-25T12:34:04.799Z,88.10
2018-05-25T12:36:31.088Z,88.90
2018-05-25T12:38:57.417Z,89.00
2018-05-25T12:41:26.864Z,89.60
2018-05-25T12:43:55.935Z,88.90
2018-05-25T12:46:22.138Z,87.50
2018-05-25T12:48:48.445Z,85.80
2018-05-25T12:51:14.654Z,84.00
2018-05-25T12:53:40.856Z,82.80
2018-05-25T12:56:07.158Z,82.90
2018-05-25T12:58:34.715Z,82.20
2018-05-25T13:01:00.988Z,82.60
2018-05-25T13:03:27.207Z,82.80
2018-05-25T13:05:54.502Z,80.80
2018-05-25T13:08:20.675Z,81.70
2018-05-25T13:10:46.854Z,81.70
2018-05-25T13:13:14.158Z,80.50
2018-05-25T13:15:40.408Z,80.90
2018-05-25T13:18:06.574Z,81.40
2018-05-25T13:20:33.661Z,81.80
2018-05-25T13:23:01.406Z,81.10
2018-05-25T13:25:27.709Z,81.80
2018-05-25T13:27:53.903Z,83.40
2018-05-25T13:30:21.076Z,84.30
2018-05-25T13:32:47.264Z,84.10
2018-05-25T13:35:13.601Z,85.60
2018-05-25T13:37:39.866Z,86.40
2018-05-25T13:40:06.098Z,88.10
2018-05-25T13:42:32.262Z,87.60
2018-05-25T13:44:58.571Z,87.90
2018-05-25T13:47:24.775Z,88.40
2018-05-25T13:49:50.943Z,88.70
2018-05-25T13:52:17.187Z,89.80
2018-05-25T13:54:44.077Z,89.80
2018-05-25T13:57:10.627Z,89.80
2018-05-25T13:59:38.311Z,89.80
2018-05-25T14:02:04.588Z,88.50
2018-05-25T14:04:32.309Z,88.30
2018-05-25T14:07:11.678Z,89.80
2018-05-25T14:09:38.035Z,90.50
2018-05-25T14:12:04.247Z,90.20
2018-05-25T14:14:30.719Z,90.30
2018-05-25T14:16:58.286Z,87.30
2018-05-25T14:19:24.647Z,88.90
2018-05-25T14:21:51.112Z,89.40
2018-05-25T14:24:18.387Z,88.90
2018-05-25T14:26:45.324Z,90.00
2018-05-25T14:29:12.751Z,90.00
2018-05-25T14:31:38.915Z,89.70
2018-05-25T14:34:05.122Z,87.80
2018-05-25T14:36:31.499Z,88.20
2018-05-25T14:38:57.751Z,85.90
2018-05-25T14:41:24.044Z,85.90
2018-05-25T14:43:50.280Z,86.20
2018-05-25T14:46:16.444Z,86.10
2018-05-25T14:48:42.664Z,86.00
2018-05-25T14:51:08.850Z,84.00
2018-05-25T14:53:35.050Z,84.30
2018-05-25T14:56:01.531Z,84.70
2018-05-25T14:58:28.291Z,85.90
2018-05-25T15:00:54.493Z,85.50
2018-05-25T15:03:20.883Z,82.60
2018-05-25T15:05:47.122Z,82.10
2018-05-25T15:08:13.279Z,83.50
2018-05-25T15:10:39.502Z,83.50
2018-05-25T15:13:06.755Z,86.10
2018-05-25T15:15:32.919Z,88.30
2018-05-25T15:18:00.107Z,89.50
2018-05-25T15:20:27.019Z,90.20
2018-05-25T15:22:53.542Z,90.80
2018-05-25T15:25:19.720Z,91.00
2018-05-25T15:27:46.135Z,91.70
2018-05-25T15:30:12.307Z,91.90
2018-05-25T15:32:39.528Z,91.90
2018-05-25T15:35:05.718Z,92.30
2018-05-25T15:37:32.150Z,92.30
2018-05-25T15:39:59.406Z,92.80
2018-05-25T15:42:25.627Z,92.70
2018-05-25T15:44:51.830Z,92.20
2018-05-25T15:47:19.126Z,92.20
2018-05-25T15:49:45.290Z,92.70
2018-05-25T15:52:12.781Z,92.80
2018-05-25T15:54:39.591Z,93.00
2018-05-25T15:57:07.287Z,93.10
2018-05-25T15:59:33.982Z,93.50
2018-05-25T16:02:00.939Z,93.50
2018-05-25T16:04:29.539Z,93.50
2018-05-25T16:06:58.625Z,93.50
2018-05-25T16:09:27.666Z,93.50
2018-05-25T16:11:55.124Z,93.80
2018-05-25T16:14:22.729Z,94.10
2018-05-25T16:16:50.037Z,94.40
2018-05-25T16:19:16.714Z,95.60
2018-05-25T16:21:44.603Z,96.00
2018-05-25T16:24:12.332Z,96.20
2018-05-25T16:26:42.028Z,96.60
2018-05-25T16:29:10.648Z,96.60
2018-05-25T16:31:40.213Z,96.90
2018-05-25T16:34:12.222Z,97.10
2018-05-25T16:36:39.197Z,97.30
2018-05-25T16:39:09.571Z,97.60
2018-05-25T16:41:35.823Z,97.80
2018-05-25T16:44:02.101Z,97.80
2018-05-25T16:46:28.342Z,97.80
2018-05-25T16:48:54.684Z,97.80
2018-05-25T16:51:20.946Z,97.80
2018-05-25T16:53:47.245Z,98.00
2018-05-25T16:56:13.494Z,98.10
2018-05-25T16:58:40.013Z,98.10
2018-05-25T17:01:06.215Z,98.00
2018-05-25T17:03:33.549Z,97.60
2018-05-25T17:05:59.874Z,98.10
2018-05-25T17:08:26.151Z,98.10
2018-05-25T17:10:52.636Z,98.00
2018-05-25T17:13:20.407Z,97.60
2018-05-25T17:15:48.764Z,97.50
2018-05-25T17:18:15.759Z,97.70
2018-05-25T17:20:43.190Z,97.60
2018-05-25T17:23:09.410Z,98.00
2018-05-25T17:25:35.690Z,98.20
2018-05-25T17:28:02.403Z,98.30
2018-05-25T17:30:29.076Z,98.30
2018-05-25T17:32:56.129Z,98.40
2018-05-25T17:35:22.879Z,98.50
2018-05-25T17:37:49.421Z,98.50
2018-05-25T17:40:15.788Z,98.60
2018-05-25T17:42:42.848Z,98.40
2018-05-25T17:45:09.504Z,98.30
2018-05-25T17:47:36.859Z,98.40
2018-05-25T17:50:03.657Z,98.70
2018-05-25T17:52:30.071Z,98.80
2018-05-25T17:55:15.745Z,98.90
2018-05-25T17:57:42.505Z,98.90
2018-05-25T18:00:18.449Z,99.10
2018-05-25T18:02:45.959Z,99.10
2018-05-25T18:05:13.090Z,99.10
2018-05-25T18:07:40.486Z,99.30
2018-05-25T18:10:08.430Z,99.30
2018-05-25T18:12:34.679Z,99.50
2018-05-25T18:15:00.862Z,99.50
2018-05-25T18:17:27.101Z,99.50
2018-05-25T18:19:54.448Z,99.30
2018-05-25T18:22:20.690Z,99.70
2018-05-25T18:24:46.942Z,99.90
2018-05-25T18:27:13.269Z,99.90
2018-05-25T18:29:39.892Z,99.90
2018-05-25T18:32:06.166Z,99.90
2018-05-25T18:34:32.435Z,99.90
2018-05-25T18:36:58.647Z,99.90
2018-05-25T18:39:24.958Z,99.90
2018-05-25T18:41:52.252Z,99.90
2018-05-25T18:44:18.502Z,99.90
2018-05-25T18:46:44.930Z,99.90
2018-05-25T18:49:15.238Z,99.90
2018-05-25T18:51:44.289Z,99.90
2018-05-25T18:54:22.812Z,99.90
2018-05-25T18:56:49.191Z,99.90
2018-05-25T18:59:15.774Z,99.90
2018-05-25T19:01:42.033Z,99.90
2018-05-25T19:04:08.651Z,99.90
2018-05-25T19:06:34.898Z,99.90
2018-05-25T19:09:01.102Z,99.90
2018-05-25T19:11:27.319Z,99.90
2018-05-25T19:13:53.482Z,99.90
2018-05-25T19:16:19.654Z,99.90
2018-05-25T19:18:45.856Z,99.90
2018-05-25T19:21:12.045Z,99.90
2018-05-25T19:23:38.296Z,99.90
2018-05-25T19:26:05.587Z,99.90
2018-05-25T19:28:31.787Z,99.90
2018-05-25T19:30:57.938Z,99.90
2018-05-25T19:33:24.098Z,99.90
2018-05-25T19:35:50.273Z,99.90
2018-05-25T19:38:16.494Z,99.90
2018-05-25T19:40:42.652Z,99.90
2018-05-25T19:43:08.929Z,99.90
2018-05-25T19:45:35.559Z,99.90
2018-05-25T19:48:02.169Z,99.90
2018-05-25T19:50:28.368Z,99.90
2018-05-25T19:52:54.634Z,99.90
2018-05-25T19:55:20.758Z,99.90
2018-05-25T19:57:47.049Z,99.90
2018-05-25T20:00:18.679Z,99.90
2018-05-25T20:02:44.857Z,99.90
2018-05-25T20:05:11.034Z,99.90
2018-05-25T20:07:37.233Z,99.90
2018-05-25T20:10:03.691Z,99.90
2018-05-25T20:12:29.859Z,99.90
2018-05-25T20:14:56.111Z,99.90
2018-05-25T20:17:22.861Z,99.90
2018-05-25T20:19:51.823Z,99.90
2018-05-25T20:22:18.546Z,99.90
2018-05-25T20:24:44.791Z,99.90
2018-05-25T20:27:12.070Z,99.90
2018-05-25T20:32:06.134Z,99.90
2018-05-25T20:34:33.498Z,99.90
2018-05-25T20:36:59.782Z,99.90
2018-05-25T20:39:26.231Z,99.90
2018-05-25T20:41:53.540Z,99.90
2018-05-25T20:44:19.765Z,99.90
2018-05-25T20:46:45.927Z,99.90
2018-05-25T20:49:12.099Z,99.90
2018-05-25T20:51:38.463Z,99.90
2018-05-25T20:54:04.643Z,99.90
2018-05-25T20:56:30.814Z,99.90
2018-05-25T20:58:57.340Z,99.90
2018-05-25T21:01:23.599Z,99.90
2018-05-25T21:03:49.919Z,99.90
2018-05-25T21:06:16.155Z,99.90
2018-05-25T21:08:42.558Z,99.90
2018-05-25T21:11:08.820Z,99.90
2018-05-25T21:13:35.078Z,99.90
2018-05-25T21:16:01.456Z,99.90
2018-05-25T21:18:27.671Z,99.90
2018-05-25T21:20:54.043Z,99.90
2018-05-25T21:23:20.262Z,99.90
2018-05-25T21:25:46.661Z,99.90
2018-05-25T21:28:13.061Z,99.90
2018-05-25T21:30:39.312Z,99.90
2018-05-25T21:33:05.513Z,99.90
2018-05-25T21:37:59.924Z,99.90
2018-05-25T21:40:26.105Z,99.90
2018-05-25T21:42:52.430Z,99.90
2018-05-25T21:45:19.771Z,99.90
2018-05-25T21:47:45.973Z,99.90
2018-05-25T21:50:12.243Z,99.90
2018-05-25T21:52:38.561Z,99.90
2018-05-25T21:55:04.800Z,99.90
2018-05-25T21:57:31.055Z,99.90
2018-05-25T21:59:57.211Z,99.90
2018-05-25T22:02:23.666Z,99.90
2018-05-25T22:04:49.926Z,99.90
2018-05-25T22:07:16.137Z,99.90
2018-05-25T22:09:42.530Z,99.90
2018-05-25T22:12:08.863Z,99.90
2018-05-25T22:14:35.087Z,99.90
2018-05-25T22:17:02.702Z,99.90
2018-05-25T22:19:29.015Z,99.90
2018-05-25T22:21:56.341Z,99.90
2018-05-25T22:24:23.066Z,99.90
2018-05-25T22:26:49.377Z,99.90
2018-05-25T22:29:15.670Z,99.90
2018-05-25T22:31:42.036Z,99.90
2018-05-25T22:34:08.351Z,99.90
2018-05-25T22:36:34.602Z,99.90
2018-05-25T22:39:00.938Z,99.90
2018-05-25T22:41:27.480Z,99.90
2018-05-25T22:44:06.055Z,99.90
2018-05-25T22:46:44.984Z,99.90
2018-05-25T22:49:24.006Z,99.90
2018-05-25T22:52:03.167Z,99.90
2018-05-25T22:54:35.447Z,99.90
2018-05-25T22:57:01.675Z,99.90
2018-05-25T22:59:27.908Z,99.90
2018-05-25T23:01:54.199Z,99.90
2018-05-25T23:04:20.460Z,99.90
2018-05-25T23:06:46.751Z,99.90
2018-05-25T23:09:13.404Z,99.90
2018-05-25T23:11:39.640Z,99.90
2018-05-25T23:14:05.885Z,99.90
2018-05-25T23:16:32.682Z,99.90
2018-05-25T23:18:58.933Z,99.90
2018-05-25T23:21:27.235Z,99.90
2018-05-25T23:23:53.438Z,99.90
2018-05-25T23:26:19.623Z,99.90
2018-05-25T23:28:46.688Z,99.90
2018-05-25T23:31:12.948Z,99.90
2018-05-25T23:33:39.772Z,99.90
2018-05-25T23:36:05.982Z,99.90
2018-05-25T23:38:32.134Z,99.90
2018-05-25T23:40:58.294Z,99.90
2018-05-25T23:43:25.935Z,99.90
2018-05-25T23:45:52.164Z,99.90
2018-05-25T23:48:18.348Z,99.90
2018-05-25T23:50:45.819Z,99.90
2018-05-25T23:53:12.022Z,99.90
2018-05-25T23:55:38.268Z,99.90
2018-05-25T23:58:04.451Z,99.90
